sensor_id;sensor_type;location;lat;lon;timestamp;pressure;altitude;pressure_sealevel;temperature;humidity
20023;BME280;10172;42.054;24.546;2022-08-19T00:02:22;97635.81;;;25.74;59.43
20023;BME280;10172;42.054;24.546;2022-08-19T00:04:48;97627.50;;;25.56;60.57
20023;BME280;10172;42.054;24.546;2022-08-19T00:07:20;97631.56;;;25.85;59.04
20023;BME280;10172;42.054;24.546;2022-08-19T00:09:46;97637.00;;;25.91;58.84
20023;BME280;10172;42.054;24.546;2022-08-19T00:12:12;97629.19;;;25.37;62.17
20023;BME280;10172;42.054;24.546;2022-08-19T00:14:38;97622.75;;;25.06;62.42
20023;BME280;10172;42.054;24.546;2022-08-19T00:17:05;97627.56;;;24.97;63.21
20023;BME280;10172;42.054;24.546;2022-08-19T00:19:32;97626.28;;;24.93;63.63
20023;BME280;10172;42.054;24.546;2022-08-19T00:21:58;97629.59;;;25.28;61.75
20023;BME280;10172;42.054;24.546;2022-08-19T00:24:24;97631.25;;;25.62;60.68
20023;BME280;10172;42.054;24.546;2022-08-19T00:26:51;97629.13;;;25.64;60.34
20023;BME280;10172;42.054;24.546;2022-08-19T00:29:18;97621.16;;;25.75;59.35
20023;BME280;10172;42.054;24.546;2022-08-19T00:31:45;97625.41;;;26.16;58.07
20023;BME280;10172;42.054;24.546;2022-08-19T00:34:13;97626.44;;;26.14;58.19
20023;BME280;10172;42.054;24.546;2022-08-19T00:36:40;97628.88;;;26.29;56.89
20023;BME280;10172;42.054;24.546;2022-08-19T00:39:07;97617.25;;;26.02;58.74
20023;BME280;10172;42.054;24.546;2022-08-19T00:41:33;97627.19;;;26.28;57.71
20023;BME280;10172;42.054;24.546;2022-08-19T00:44:13;97620.72;;;25.78;59.24
20023;BME280;10172;42.054;24.546;2022-08-19T00:46:43;97623.38;;;25.91;59.13
20023;BME280;10172;42.054;24.546;2022-08-19T00:49:15;97608.44;;;26.13;58.06
20023;BME280;10172;42.054;24.546;2022-08-19T00:51:45;97620.97;;;26.14;57.98
20023;BME280;10172;42.054;24.546;2022-08-19T00:54:11;97608.59;;;26.19;57.62
20023;BME280;10172;42.054;24.546;2022-08-19T00:56:37;97614.59;;;25.89;58.99
20023;BME280;10172;42.054;24.546;2022-08-19T00:59:03;97608.72;;;25.86;59.61
20023;BME280;10172;42.054;24.546;2022-08-19T01:01:37;97601.44;;;26.55;57.20
20023;BME280;10172;42.054;24.546;2022-08-19T01:04:03;97599.16;;;26.77;56.59
20023;BME280;10172;42.054;24.546;2022-08-19T01:06:30;97602.81;;;26.96;55.47
20023;BME280;10172;42.054;24.546;2022-08-19T01:08:58;97594.88;;;26.94;55.81
20023;BME280;10172;42.054;24.546;2022-08-19T01:11:24;97594.28;;;27.10;55.38
20023;BME280;10172;42.054;24.546;2022-08-19T01:13:51;97596.72;;;26.00;58.83
20023;BME280;10172;42.054;24.546;2022-08-19T01:16:19;97597.72;;;25.61;60.63
20023;BME280;10172;42.054;24.546;2022-08-19T01:18:45;97597.03;;;25.79;59.46
20023;BME280;10172;42.054;24.546;2022-08-19T01:21:36;97595.25;;;25.53;60.96
20023;BME280;10172;42.054;24.546;2022-08-19T01:24:05;97593.91;;;25.75;60.24
20023;BME280;10172;42.054;24.546;2022-08-19T01:26:30;97600.72;;;25.97;59.45
20023;BME280;10172;42.054;24.546;2022-08-19T01:28:58;97604.84;;;26.20;57.83
20023;BME280;10172;42.054;24.546;2022-08-19T01:31:27;97609.84;;;26.54;57.03
20023;BME280;10172;42.054;24.546;2022-08-19T01:33:57;97611.69;;;26.29;57.49
20023;BME280;10172;42.054;24.546;2022-08-19T01:36:30;97614.16;;;26.93;55.45
20023;BME280;10172;42.054;24.546;2022-08-19T01:38:57;97617.69;;;27.24;54.14
20023;BME280;10172;42.054;24.546;2022-08-19T01:41:23;97623.53;;;27.71;53.21
20023;BME280;10172;42.054;24.546;2022-08-19T01:43:50;97613.00;;;27.50;53.78
20023;BME280;10172;42.054;24.546;2022-08-19T01:46:16;97629.97;;;27.09;55.38
20023;BME280;10172;42.054;24.546;2022-08-19T01:48:43;97629.59;;;26.05;59.56
20023;BME280;10172;42.054;24.546;2022-08-19T01:51:10;97622.69;;;26.02;59.68
20023;BME280;10172;42.054;24.546;2022-08-19T01:53:37;97618.66;;;25.61;61.70
20023;BME280;10172;42.054;24.546;2022-08-19T01:56:04;97622.69;;;24.53;65.83
20023;BME280;10172;42.054;24.546;2022-08-19T01:58:33;97626.69;;;24.77;66.09
20023;BME280;10172;42.054;24.546;2022-08-19T02:01:01;97619.16;;;24.59;66.44
20023;BME280;10172;42.054;24.546;2022-08-19T02:03:27;97620.22;;;24.84;66.08
20023;BME280;10172;42.054;24.546;2022-08-19T02:06:03;97619.59;;;24.82;66.55
20023;BME280;10172;42.054;24.546;2022-08-19T02:08:32;97623.13;;;24.63;67.01
20023;BME280;10172;42.054;24.546;2022-08-19T02:10:57;97617.69;;;24.63;66.52
20023;BME280;10172;42.054;24.546;2022-08-19T02:13:26;97631.72;;;24.67;65.70
20023;BME280;10172;42.054;24.546;2022-08-19T02:15:52;97635.00;;;24.29;68.53
20023;BME280;10172;42.054;24.546;2022-08-19T02:18:17;97636.13;;;24.87;65.17
20023;BME280;10172;42.054;24.546;2022-08-19T02:20:44;97640.03;;;25.44;61.90
20023;BME280;10172;42.054;24.546;2022-08-19T02:23:12;97640.03;;;25.44;62.37
20023;BME280;10172;42.054;24.546;2022-08-19T02:25:38;97646.13;;;25.59;62.57
20023;BME280;10172;42.054;24.546;2022-08-19T02:28:05;97657.47;;;26.07;61.27
20023;BME280;10172;42.054;24.546;2022-08-19T02:30:31;97653.00;;;26.63;59.41
20023;BME280;10172;42.054;24.546;2022-08-19T02:32:57;97670.97;;;26.71;58.18
20023;BME280;10172;42.054;24.546;2022-08-19T02:35:23;97673.50;;;26.79;57.75
20023;BME280;10172;42.054;24.546;2022-08-19T02:37:48;97664.56;;;26.59;57.46
20023;BME280;10172;42.054;24.546;2022-08-19T02:40:33;97672.19;;;26.06;59.09
20023;BME280;10172;42.054;24.546;2022-08-19T02:43:07;97677.63;;;25.99;59.60
20023;BME280;10172;42.054;24.546;2022-08-19T02:45:37;97680.28;;;26.26;59.18
20023;BME280;10172;42.054;24.546;2022-08-19T02:48:04;97677.69;;;25.80;60.57
20023;BME280;10172;42.054;24.546;2022-08-19T02:50:31;97682.19;;;26.19;59.07
20023;BME280;10172;42.054;24.546;2022-08-19T02:52:57;97683.50;;;26.54;57.95
20023;BME280;10172;42.054;24.546;2022-08-19T02:55:22;97681.63;;;26.48;57.82
20023;BME280;10172;42.054;24.546;2022-08-19T02:57:48;97680.69;;;25.65;59.30
20023;BME280;10172;42.054;24.546;2022-08-19T03:00:15;97695.97;;;25.66;60.29
20023;BME280;10172;42.054;24.546;2022-08-19T03:06:11;97693.28;;;25.01;62.74
20023;BME280;10172;42.054;24.546;2022-08-19T03:08:40;97698.69;;;24.87;63.46
20023;BME280;10172;42.054;24.546;2022-08-19T03:11:06;97704.72;;;24.76;64.65
20023;BME280;10172;42.054;24.546;2022-08-19T03:13:37;97694.44;;;24.59;65.19
20023;BME280;10172;42.054;24.546;2022-08-19T03:16:04;97693.91;;;24.89;64.05
20023;BME280;10172;42.054;24.546;2022-08-19T03:18:30;97700.72;;;24.59;66.43
20023;BME280;10172;42.054;24.546;2022-08-19T03:20:56;97701.06;;;24.30;68.25
20023;BME280;10172;42.054;24.546;2022-08-19T03:23:22;97702.25;;;25.01;64.85
20023;BME280;10172;42.054;24.546;2022-08-19T03:25:50;97701.44;;;24.14;68.60
20023;BME280;10172;42.054;24.546;2022-08-19T03:28:16;97706.53;;;23.96;71.11
20023;BME280;10172;42.054;24.546;2022-08-19T03:30:43;97705.19;;;24.13;71.01
20023;BME280;10172;42.054;24.546;2022-08-19T03:33:21;97707.94;;;23.85;72.70
20023;BME280;10172;42.054;24.546;2022-08-19T03:35:46;97703.75;;;23.48;75.30
20023;BME280;10172;42.054;24.546;2022-08-19T03:38:12;97707.03;;;23.16;77.10
20023;BME280;10172;42.054;24.546;2022-08-19T03:40:37;97708.50;;;23.40;75.49
20023;BME280;10172;42.054;24.546;2022-08-19T03:43:03;97705.00;;;23.46;74.42
20023;BME280;10172;42.054;24.546;2022-08-19T03:45:28;97711.44;;;23.45;73.78
20023;BME280;10172;42.054;24.546;2022-08-19T03:47:55;97711.94;;;23.27;74.70
20023;BME280;10172;42.054;24.546;2022-08-19T03:50:20;97709.22;;;23.27;75.70
20023;BME280;10172;42.054;24.546;2022-08-19T03:52:50;97712.94;;;23.82;72.53
20023;BME280;10172;42.054;24.546;2022-08-19T03:55:16;97722.53;;;23.43;74.34
20023;BME280;10172;42.054;24.546;2022-08-19T03:57:42;97709.03;;;23.56;74.17
20023;BME280;10172;42.054;24.546;2022-08-19T04:00:08;97719.34;;;23.40;74.50
20023;BME280;10172;42.054;24.546;2022-08-19T04:02:34;97718.19;;;23.55;73.60
20023;BME280;10172;42.054;24.546;2022-08-19T04:04:59;97712.84;;;23.13;76.27
20023;BME280;10172;42.054;24.546;2022-08-19T04:07:25;97721.03;;;23.75;73.50
20023;BME280;10172;42.054;24.546;2022-08-19T04:09:50;97722.34;;;23.86;72.83
20023;BME280;10172;42.054;24.546;2022-08-19T04:12:17;97727.47;;;24.02;72.13
20023;BME280;10172;42.054;24.546;2022-08-19T04:14:45;97738.91;;;24.92;68.24
20023;BME280;10172;42.054;24.546;2022-08-19T04:17:11;97741.63;;;25.18;67.94
20023;BME280;10172;42.054;24.546;2022-08-19T04:19:39;97733.06;;;25.41;65.85
20023;BME280;10172;42.054;24.546;2022-08-19T04:22:05;97747.06;;;25.12;65.87
20023;BME280;10172;42.054;24.546;2022-08-19T04:24:32;97739.03;;;24.71;67.74
20023;BME280;10172;42.054;24.546;2022-08-19T04:27:00;97746.03;;;25.00;67.27
20023;BME280;10172;42.054;24.546;2022-08-19T04:29:25;97741.75;;;24.71;69.98
20023;BME280;10172;42.054;24.546;2022-08-19T04:31:54;97747.84;;;24.19;73.20
20023;BME280;10172;42.054;24.546;2022-08-19T04:34:21;97745.47;;;23.75;75.03
20023;BME280;10172;42.054;24.546;2022-08-19T04:36:48;97743.97;;;24.41;71.51
20023;BME280;10172;42.054;24.546;2022-08-19T04:39:19;97751.88;;;24.96;69.66
20023;BME280;10172;42.054;24.546;2022-08-19T04:41:45;97749.50;;;23.86;77.41
20023;BME280;10172;42.054;24.546;2022-08-19T04:44:35;97750.28;;;23.45;80.91
20023;BME280;10172;42.054;24.546;2022-08-19T04:47:00;97742.31;;;24.06;77.87
20023;BME280;10172;42.054;24.546;2022-08-19T04:49:27;97738.78;;;24.05;79.21
20023;BME280;10172;42.054;24.546;2022-08-19T04:51:53;97750.09;;;22.98;85.68
20023;BME280;10172;42.054;24.546;2022-08-19T04:54:21;97741.16;;;23.87;81.13
20023;BME280;10172;42.054;24.546;2022-08-19T04:56:49;97743.28;;;23.92;80.69
20023;BME280;10172;42.054;24.546;2022-08-19T04:59:15;97744.06;;;24.13;78.71
20023;BME280;10172;42.054;24.546;2022-08-19T05:01:42;97743.66;;;24.23;79.16
20023;BME280;10172;42.054;24.546;2022-08-19T05:04:08;97743.63;;;24.10;80.57
20023;BME280;10172;42.054;24.546;2022-08-19T05:06:35;97743.84;;;23.80;82.25
20023;BME280;10172;42.054;24.546;2022-08-19T05:09:03;97749.13;;;23.54;85.12
20023;BME280;10172;42.054;24.546;2022-08-19T05:11:33;97736.22;;;23.97;83.48
20023;BME280;10172;42.054;24.546;2022-08-19T05:13:59;97750.31;;;24.61;78.72
20023;BME280;10172;42.054;24.546;2022-08-19T05:16:26;97757.28;;;24.83;76.87
20023;BME280;10172;42.054;24.546;2022-08-19T05:18:52;97748.97;;;25.31;75.14
20023;BME280;10172;42.054;24.546;2022-08-19T05:21:38;97758.41;;;25.48;74.86
20023;BME280;10172;42.054;24.546;2022-08-19T05:24:23;97752.34;;;25.52;73.22
20023;BME280;10172;42.054;24.546;2022-08-19T05:26:50;97757.78;;;25.46;75.57
20023;BME280;10172;42.054;24.546;2022-08-19T05:29:19;97761.03;;;26.07;72.80
20023;BME280;10172;42.054;24.546;2022-08-19T05:31:46;97760.72;;;26.41;72.14
20023;BME280;10172;42.054;24.546;2022-08-19T05:34:12;97763.19;;;26.56;69.89
20023;BME280;10172;42.054;24.546;2022-08-19T05:36:41;97767.38;;;26.58;69.99
20023;BME280;10172;42.054;24.546;2022-08-19T05:39:13;97766.72;;;27.01;68.09
20023;BME280;10172;42.054;24.546;2022-08-19T05:41:53;97771.03;;;27.21;66.50
20023;BME280;10172;42.054;24.546;2022-08-19T05:44:20;97766.66;;;27.39;66.11
20023;BME280;10172;42.054;24.546;2022-08-19T05:46:47;97769.69;;;27.80;63.85
20023;BME280;10172;42.054;24.546;2022-08-19T05:49:13;97764.47;;;28.03;66.10
20023;BME280;10172;42.054;24.546;2022-08-19T05:51:39;97763.88;;;28.19;63.49
20023;BME280;10172;42.054;24.546;2022-08-19T05:54:06;97769.47;;;28.06;63.96
20023;BME280;10172;42.054;24.546;2022-08-19T05:56:33;97761.13;;;28.37;62.84
20023;BME280;10172;42.054;24.546;2022-08-19T05:59:02;97757.03;;;28.65;63.12
20023;BME280;10172;42.054;24.546;2022-08-19T06:01:28;97766.28;;;28.82;60.77
20023;BME280;10172;42.054;24.546;2022-08-19T06:03:53;97762.16;;;28.73;61.03
20023;BME280;10172;42.054;24.546;2022-08-19T06:06:19;97759.59;;;29.19;56.24
20023;BME280;10172;42.054;24.546;2022-08-19T06:08:45;97765.75;;;29.33;56.43
20023;BME280;10172;42.054;24.546;2022-08-19T06:11:19;97776.84;;;29.49;52.03
20023;BME280;10172;42.054;24.546;2022-08-19T06:13:46;97770.00;;;29.82;53.54
20023;BME280;10172;42.054;24.546;2022-08-19T06:16:17;97774.03;;;29.91;51.72
20023;BME280;10172;42.054;24.546;2022-08-19T06:18:50;97778.22;;;29.93;51.52
20023;BME280;10172;42.054;24.546;2022-08-19T06:21:24;97774.03;;;30.14;52.29
20023;BME280;10172;42.054;24.546;2022-08-19T06:23:51;97778.63;;;30.60;51.55
20023;BME280;10172;42.054;24.546;2022-08-19T06:26:18;97777.88;;;30.76;49.52
20023;BME280;10172;42.054;24.546;2022-08-19T06:28:44;97773.13;;;31.00;49.20
20023;BME280;10172;42.054;24.546;2022-08-19T06:31:20;97775.19;;;31.21;46.72
20023;BME280;10172;42.054;24.546;2022-08-19T06:33:47;97781.53;;;31.38;48.08
20023;BME280;10172;42.054;24.546;2022-08-19T06:36:21;97784.50;;;31.48;45.29
20023;BME280;10172;42.054;24.546;2022-08-19T06:38:47;97784.38;;;31.43;47.04
20023;BME280;10172;42.054;24.546;2022-08-19T06:41:13;97786.06;;;31.77;47.44
20023;BME280;10172;42.054;24.546;2022-08-19T06:43:39;97784.25;;;31.66;47.94
20023;BME280;10172;42.054;24.546;2022-08-19T06:46:10;97792.75;;;31.81;47.81
20023;BME280;10172;42.054;24.546;2022-08-19T06:48:36;97784.78;;;31.07;45.87
20023;BME280;10172;42.054;24.546;2022-08-19T06:51:02;97784.13;;;31.00;46.88
20023;BME280;10172;42.054;24.546;2022-08-19T06:53:30;97791.94;;;30.05;48.56
20023;BME280;10172;42.054;24.546;2022-08-19T06:55:55;97795.19;;;30.76;46.39
20023;BME280;10172;42.054;24.546;2022-08-19T06:58:25;97791.81;;;30.74;44.91
20023;BME280;10172;42.054;24.546;2022-08-19T07:00:51;97794.66;;;30.40;45.30
20023;BME280;10172;42.054;24.546;2022-08-19T07:03:16;97785.81;;;31.01;45.34
20023;BME280;10172;42.054;24.546;2022-08-19T07:05:43;97781.38;;;30.60;44.40
20023;BME280;10172;42.054;24.546;2022-08-19T07:08:09;97775.63;;;30.61;44.99
20023;BME280;10172;42.054;24.546;2022-08-19T07:10:35;97776.97;;;30.99;45.94
20023;BME280;10172;42.054;24.546;2022-08-19T07:13:02;97782.44;;;30.99;44.07
20023;BME280;10172;42.054;24.546;2022-08-19T07:15:29;97791.69;;;30.41;45.81
20023;BME280;10172;42.054;24.546;2022-08-19T07:17:55;97786.31;;;29.88;45.96
20023;BME280;10172;42.054;24.546;2022-08-19T07:20:20;97776.47;;;31.02;45.98
20023;BME280;10172;42.054;24.546;2022-08-19T07:22:45;97784.53;;;30.92;45.37
20023;BME280;10172;42.054;24.546;2022-08-19T07:25:11;97780.84;;;31.31;43.45
20023;BME280;10172;42.054;24.546;2022-08-19T07:27:38;97781.88;;;31.25;43.41
20023;BME280;10172;42.054;24.546;2022-08-19T07:30:05;97779.22;;;31.96;42.25
20023;BME280;10172;42.054;24.546;2022-08-19T07:32:31;97771.22;;;31.45;42.37
20023;BME280;10172;42.054;24.546;2022-08-19T07:34:56;97773.66;;;31.91;42.40
20023;BME280;10172;42.054;24.546;2022-08-19T07:37:23;97782.25;;;32.12;43.19
20023;BME280;10172;42.054;24.546;2022-08-19T07:39:48;97773.00;;;31.51;44.12
20023;BME280;10172;42.054;24.546;2022-08-19T07:42:14;97776.41;;;32.08;42.28
20023;BME280;10172;42.054;24.546;2022-08-19T07:44:40;97789.03;;;32.26;41.72
20023;BME280;10172;42.054;24.546;2022-08-19T07:47:06;97784.91;;;32.45;40.41
20023;BME280;10172;42.054;24.546;2022-08-19T07:49:32;97778.28;;;32.84;39.34
20023;BME280;10172;42.054;24.546;2022-08-19T07:52:05;97775.94;;;33.46;38.32
20023;BME280;10172;42.054;24.546;2022-08-19T07:54:34;97780.03;;;33.71;39.59
20023;BME280;10172;42.054;24.546;2022-08-19T07:57:01;97777.16;;;34.29;37.92
20023;BME280;10172;42.054;24.546;2022-08-19T07:59:27;97775.25;;;34.35;36.88
20023;BME280;10172;42.054;24.546;2022-08-19T08:01:54;97785.31;;;33.77;36.86
20023;BME280;10172;42.054;24.546;2022-08-19T08:04:20;97775.63;;;33.16;38.67
20023;BME280;10172;42.054;24.546;2022-08-19T08:07:06;97774.84;;;33.21;38.08
20023;BME280;10172;42.054;24.546;2022-08-19T08:09:50;97782.75;;;32.09;41.05
20023;BME280;10172;42.054;24.546;2022-08-19T08:12:23;97765.88;;;32.60;40.33
20023;BME280;10172;42.054;24.546;2022-08-19T08:14:59;97769.81;;;32.91;39.40
20023;BME280;10172;42.054;24.546;2022-08-19T08:17:27;97767.97;;;34.13;37.91
20023;BME280;10172;42.054;24.546;2022-08-19T08:19:53;97770.69;;;34.08;36.96
20023;BME280;10172;42.054;24.546;2022-08-19T08:22:21;97769.28;;;32.50;39.08
20023;BME280;10172;42.054;24.546;2022-08-19T08:25:12;97773.44;;;32.96;38.92
20023;BME280;10172;42.054;24.546;2022-08-19T08:27:43;97774.53;;;32.30;39.13
20023;BME280;10172;42.054;24.546;2022-08-19T08:30:15;97761.72;;;32.79;39.09
20023;BME280;10172;42.054;24.546;2022-08-19T08:32:41;97763.66;;;32.02;39.21
20023;BME280;10172;42.054;24.546;2022-08-19T08:35:11;97764.66;;;32.73;39.30
20023;BME280;10172;42.054;24.546;2022-08-19T08:37:37;97763.34;;;33.29;38.33
20023;BME280;10172;42.054;24.546;2022-08-19T08:40:06;97760.75;;;33.44;37.95
20023;BME280;10172;42.054;24.546;2022-08-19T08:42:35;97764.25;;;33.07;38.22
20023;BME280;10172;42.054;24.546;2022-08-19T08:45:11;97761.91;;;32.99;38.32
20023;BME280;10172;42.054;24.546;2022-08-19T08:47:41;97750.75;;;33.06;38.60
20023;BME280;10172;42.054;24.546;2022-08-19T08:50:20;97753.88;;;34.15;37.40
20023;BME280;10172;42.054;24.546;2022-08-19T08:52:53;97747.75;;;34.55;37.00
20023;BME280;10172;42.054;24.546;2022-08-19T08:55:25;97749.69;;;34.07;36.90
20023;BME280;10172;42.054;24.546;2022-08-19T08:58:14;97749.38;;;33.35;38.23
20023;BME280;10172;42.054;24.546;2022-08-19T09:00:47;97748.00;;;33.38;38.96
20023;BME280;10172;42.054;24.546;2022-08-19T09:03:19;97740.81;;;33.37;38.62
20023;BME280;10172;42.054;24.546;2022-08-19T09:11:47;97730.94;;;33.41;38.14
20023;BME280;10172;42.054;24.546;2022-08-19T09:14:37;97731.38;;;33.28;38.73
20023;BME280;10172;42.054;24.546;2022-08-19T09:17:08;97717.28;;;34.40;37.71
20023;BME280;10172;42.054;24.546;2022-08-19T09:19:46;97723.50;;;34.57;36.70
20023;BME280;10172;42.054;24.546;2022-08-19T09:22:12;97720.47;;;34.11;37.68
20023;BME280;10172;42.054;24.546;2022-08-19T09:24:38;97718.69;;;33.90;36.50
20023;BME280;10172;42.054;24.546;2022-08-19T09:27:04;97714.84;;;34.48;35.30
20023;BME280;10172;42.054;24.546;2022-08-19T09:29:29;97722.84;;;35.37;35.01
20023;BME280;10172;42.054;24.546;2022-08-19T09:31:55;97716.50;;;35.26;34.50
20023;BME280;10172;42.054;24.546;2022-08-19T09:34:21;97716.38;;;34.71;35.44
20023;BME280;10172;42.054;24.546;2022-08-19T09:36:47;97710.44;;;35.65;33.85
20023;BME280;10172;42.054;24.546;2022-08-19T09:39:18;97701.41;;;36.48;32.54
20023;BME280;10172;42.054;24.546;2022-08-19T09:41:44;97715.66;;;35.51;33.96
20023;BME280;10172;42.054;24.546;2022-08-19T09:44:09;97704.63;;;35.56;33.46
20023;BME280;10172;42.054;24.546;2022-08-19T09:46:37;97706.25;;;35.27;34.33
20023;BME280;10172;42.054;24.546;2022-08-19T09:49:02;97706.78;;;36.20;32.09
20023;BME280;10172;42.054;24.546;2022-08-19T09:51:31;97693.69;;;36.94;31.80
20023;BME280;10172;42.054;24.546;2022-08-19T09:54:01;97698.19;;;37.29;31.40
20023;BME280;10172;42.054;24.546;2022-08-19T09:56:29;97701.66;;;36.62;31.50
20023;BME280;10172;42.054;24.546;2022-08-19T09:58:58;97699.94;;;37.20;30.75
20023;BME280;10172;42.054;24.546;2022-08-19T10:01:26;97698.00;;;37.88;30.90
20023;BME280;10172;42.054;24.546;2022-08-19T10:03:55;97690.94;;;38.24;30.01
20023;BME280;10172;42.054;24.546;2022-08-19T10:06:23;97684.69;;;38.14;29.73
20023;BME280;10172;42.054;24.546;2022-08-19T10:08:49;97683.25;;;37.93;29.40
20023;BME280;10172;42.054;24.546;2022-08-19T10:11:17;97686.09;;;37.88;29.52
20023;BME280;10172;42.054;24.546;2022-08-19T10:13:43;97672.28;;;38.30;28.70
20023;BME280;10172;42.054;24.546;2022-08-19T10:16:12;97687.13;;;37.63;29.39
20023;BME280;10172;42.054;24.546;2022-08-19T10:18:38;97682.19;;;38.12;28.98
20023;BME280;10172;42.054;24.546;2022-08-19T10:21:08;97670.47;;;38.44;27.59
20023;BME280;10172;42.054;24.546;2022-08-19T10:23:36;97668.63;;;38.35;27.94
20023;BME280;10172;42.054;24.546;2022-08-19T10:26:06;97675.59;;;38.32;27.45
20023;BME280;10172;42.054;24.546;2022-08-19T10:28:33;97668.97;;;38.28;28.19
20023;BME280;10172;42.054;24.546;2022-08-19T10:31:04;97659.84;;;37.99;28.11
20023;BME280;10172;42.054;24.546;2022-08-19T10:33:31;97659.13;;;38.59;27.65
20023;BME280;10172;42.054;24.546;2022-08-19T10:36:09;97670.63;;;38.76;27.95
20023;BME280;10172;42.054;24.546;2022-08-19T10:38:35;97663.78;;;38.64;26.24
20023;BME280;10172;42.054;24.546;2022-08-19T10:41:11;97655.25;;;37.89;26.34
20023;BME280;10172;42.054;24.546;2022-08-19T10:43:38;97658.19;;;37.69;27.28
20023;BME280;10172;42.054;24.546;2022-08-19T10:46:09;97654.16;;;38.38;26.40
20023;BME280;10172;42.054;24.546;2022-08-19T10:48:35;97660.81;;;38.60;25.81
20023;BME280;10172;42.054;24.546;2022-08-19T10:51:01;97659.03;;;38.46;24.81
20023;BME280;10172;42.054;24.546;2022-08-19T10:53:45;97661.53;;;38.47;25.67
20023;BME280;10172;42.054;24.546;2022-08-19T10:56:11;97658.81;;;38.42;25.04
20023;BME280;10172;42.054;24.546;2022-08-19T10:58:55;97655.75;;;38.20;25.88
20023;BME280;10172;42.054;24.546;2022-08-19T11:01:21;97653.53;;;36.97;27.45
20023;BME280;10172;42.054;24.546;2022-08-19T11:03:47;97654.13;;;37.28;27.54
20023;BME280;10172;42.054;24.546;2022-08-19T11:06:12;97646.50;;;37.09;27.38
20023;BME280;10172;42.054;24.546;2022-08-19T11:08:38;97645.06;;;38.32;26.98
20023;BME280;10172;42.054;24.546;2022-08-19T11:11:05;97639.88;;;38.20;27.54
20023;BME280;10172;42.054;24.546;2022-08-19T11:13:32;97644.75;;;38.95;26.06
20023;BME280;10172;42.054;24.546;2022-08-19T11:16:08;97637.66;;;38.46;26.28
20023;BME280;10172;42.054;24.546;2022-08-19T11:18:43;97635.97;;;39.06;26.01
20023;BME280;10172;42.054;24.546;2022-08-19T11:23:36;97635.91;;;38.93;26.37
20023;BME280;10172;42.054;24.546;2022-08-19T11:26:02;97628.66;;;38.54;26.33
20023;BME280;10172;42.054;24.546;2022-08-19T11:28:27;97628.97;;;39.09;25.79
20023;BME280;10172;42.054;24.546;2022-08-19T11:30:53;97635.66;;;39.26;25.83
20023;BME280;10172;42.054;24.546;2022-08-19T11:33:21;97633.03;;;38.98;24.92
20023;BME280;10172;42.054;24.546;2022-08-19T11:35:47;97622.47;;;39.32;25.52
20023;BME280;10172;42.054;24.546;2022-08-19T11:38:14;97615.56;;;38.36;26.36
20023;BME280;10172;42.054;24.546;2022-08-19T11:40:40;97626.13;;;37.24;28.04
20023;BME280;10172;42.054;24.546;2022-08-19T11:43:07;97612.25;;;38.34;26.47
20023;BME280;10172;42.054;24.546;2022-08-19T11:45:34;97613.97;;;37.78;27.55
20023;BME280;10172;42.054;24.546;2022-08-19T11:48:00;97613.91;;;38.35;26.63
20023;BME280;10172;42.054;24.546;2022-08-19T11:50:26;97608.94;;;38.93;27.35
20023;BME280;10172;42.054;24.546;2022-08-19T11:52:56;97611.25;;;39.37;26.31
20023;BME280;10172;42.054;24.546;2022-08-19T11:55:22;97617.09;;;39.22;25.86
20023;BME280;10172;42.054;24.546;2022-08-19T11:57:48;97605.63;;;39.56;25.84
20023;BME280;10172;42.054;24.546;2022-08-19T12:00:14;97603.25;;;39.81;24.86
20023;BME280;10172;42.054;24.546;2022-08-19T12:02:40;97605.00;;;39.45;25.05
20023;BME280;10172;42.054;24.546;2022-08-19T12:05:06;97601.41;;;38.94;26.43
20023;BME280;10172;42.054;24.546;2022-08-19T12:07:32;97587.56;;;38.70;26.10
20023;BME280;10172;42.054;24.546;2022-08-19T12:09:59;97587.53;;;37.61;27.42
20023;BME280;10172;42.054;24.546;2022-08-19T12:12:25;97571.47;;;37.01;27.79
20023;BME280;10172;42.054;24.546;2022-08-19T12:14:52;97578.03;;;37.39;28.47
20023;BME280;10172;42.054;24.546;2022-08-19T12:17:30;97581.84;;;37.71;28.71
20023;BME280;10172;42.054;24.546;2022-08-19T12:19:56;97570.63;;;38.29;27.74
20023;BME280;10172;42.054;24.546;2022-08-19T12:22:21;97567.94;;;39.17;26.71
20023;BME280;10172;42.054;24.546;2022-08-19T12:24:47;97567.50;;;39.56;25.66
20023;BME280;10172;42.054;24.546;2022-08-19T12:27:15;97574.50;;;39.40;25.76
20023;BME280;10172;42.054;24.546;2022-08-19T12:29:40;97572.66;;;39.17;25.71
20023;BME280;10172;42.054;24.546;2022-08-19T12:32:06;97565.09;;;38.66;25.68
20023;BME280;10172;42.054;24.546;2022-08-19T12:34:33;97566.75;;;38.67;27.00
20023;BME280;10172;42.054;24.546;2022-08-19T12:37:01;97569.88;;;38.84;27.00
20023;BME280;10172;42.054;24.546;2022-08-19T12:39:27;97563.34;;;39.08;26.78
20023;BME280;10172;42.054;24.546;2022-08-19T12:41:53;97569.31;;;39.01;25.95
20023;BME280;10172;42.054;24.546;2022-08-19T12:44:19;97559.03;;;37.80;27.54
20023;BME280;10172;42.054;24.546;2022-08-19T12:46:44;97558.66;;;38.10;27.00
20023;BME280;10172;42.054;24.546;2022-08-19T12:49:10;97559.66;;;39.31;25.85
20023;BME280;10172;42.054;24.546;2022-08-19T12:51:36;97560.25;;;40.01;25.18
20023;BME280;10172;42.054;24.546;2022-08-19T12:54:02;97558.25;;;40.01;25.22
20023;BME280;10172;42.054;24.546;2022-08-19T12:56:29;97561.38;;;39.73;25.34
20023;BME280;10172;42.054;24.546;2022-08-19T12:58:56;97558.03;;;39.57;25.67
20023;BME280;10172;42.054;24.546;2022-08-19T13:01:21;97555.19;;;39.89;25.11
20023;BME280;10172;42.054;24.546;2022-08-19T13:03:47;97555.75;;;39.59;24.75
20023;BME280;10172;42.054;24.546;2022-08-19T13:06:13;97545.13;;;38.64;26.51
20023;BME280;10172;42.054;24.546;2022-08-19T13:08:39;97543.63;;;37.92;26.93